sensor_id;sensor_type;location;lat;lon;timestamp;temperature;humidity
46366;DHT22;32073;49.166;8.076;2023-04-21T00:03:34;10.70;55.30
46366;DHT22;32073;49.166;8.076;2023-04-21T00:07:37;10.60;55.30
46366;DHT22;32073;49.166;8.076;2023-04-21T00:11:38;10.50;55.30
46366;DHT22;32073;49.166;8.076;2023-04-21T00:15:39;10.50;55.40
46366;DHT22;32073;49.166;8.076;2023-04-21T00:19:40;10.40;55.60
46366;DHT22;32073;49.166;8.076;2023-04-21T00:23:41;10.40;55.70
46366;DHT22;32073;49.166;8.076;2023-04-21T00:27:42;10.40;55.70
46366;DHT22;32073;49.166;8.076;2023-04-21T00:31:42;10.30;55.80
46366;DHT22;32073;49.166;8.076;2023-04-21T00:35:43;10.30;55.90
46366;DHT22;32073;49.166;8.076;2023-04-21T00:39:44;10.30;55.90
46366;DHT22;32073;49.166;8.076;2023-04-21T00:44:05;10.30;56.00
46366;DHT22;32073;49.166;8.076;2023-04-21T00:48:07;10.20;57.20
46366;DHT22;32073;49.166;8.076;2023-04-21T00:52:10;10.20;56.10
46366;DHT22;32073;49.166;8.076;2023-04-21T00:56:15;10.10;56.20
46366;DHT22;32073;49.166;8.076;2023-04-21T01:00:27;10.10;56.30
46366;DHT22;32073;49.166;8.076;2023-04-21T01:04:28;10.10;56.80
46366;DHT22;32073;49.166;8.076;2023-04-21T01:08:35;10.10;56.40
46366;DHT22;32073;49.166;8.076;2023-04-21T01:12:43;10.10;56.50
46366;DHT22;32073;49.166;8.076;2023-04-21T01:16:47;10.10;57.00
46366;DHT22;32073;49.166;8.076;2023-04-21T01:20:48;10.00;56.50
46366;DHT22;32073;49.166;8.076;2023-04-21T01:24:49;10.00;56.60
46366;DHT22;32073;49.166;8.076;2023-04-21T01:28:55;10.00;56.70
46366;DHT22;32073;49.166;8.076;2023-04-21T01:32:58;10.00;56.90
46366;DHT22;32073;49.166;8.076;2023-04-21T01:37:00;9.90;56.70
46366;DHT22;32073;49.166;8.076;2023-04-21T01:41:00;9.90;56.80
46366;DHT22;32073;49.166;8.076;2023-04-21T01:45:01;9.90;56.80
46366;DHT22;32073;49.166;8.076;2023-04-21T01:49:02;9.90;56.80
46366;DHT22;32073;49.166;8.076;2023-04-21T01:53:03;9.80;56.90
46366;DHT22;32073;49.166;8.076;2023-04-21T01:57:03;9.80;56.80
46366;DHT22;32073;49.166;8.076;2023-04-21T02:01:04;9.70;56.80
46366;DHT22;32073;49.166;8.076;2023-04-21T02:05:05;9.70;56.90
46366;DHT22;32073;49.166;8.076;2023-04-21T02:09:06;9.70;57.10
46366;DHT22;32073;49.166;8.076;2023-04-21T02:13:07;9.70;57.10
46366;DHT22;32073;49.166;8.076;2023-04-21T02:17:07;9.60;57.10
46366;DHT22;32073;49.166;8.076;2023-04-21T02:21:08;9.60;57.10
46366;DHT22;32073;49.166;8.076;2023-04-21T02:25:09;9.60;57.20
46366;DHT22;32073;49.166;8.076;2023-04-21T02:29:10;9.60;57.30
46366;DHT22;32073;49.166;8.076;2023-04-21T02:33:11;9.50;57.30
46366;DHT22;32073;49.166;8.076;2023-04-21T02:37:11;9.50;57.40
46366;DHT22;32073;49.166;8.076;2023-04-21T02:41:15;9.50;57.40
46366;DHT22;32073;49.166;8.076;2023-04-21T02:45:16;9.50;57.60
46366;DHT22;32073;49.166;8.076;2023-04-21T02:49:16;9.50;57.60
46366;DHT22;32073;49.166;8.076;2023-04-21T02:53:18;9.40;57.60
46366;DHT22;32073;49.166;8.076;2023-04-21T02:57:19;9.50;58.40
46366;DHT22;32073;49.166;8.076;2023-04-21T03:01:27;9.50;57.90
46366;DHT22;32073;49.166;8.076;2023-04-21T03:05:28;9.50;57.80
46366;DHT22;32073;49.166;8.076;2023-04-21T03:09:29;9.50;57.90
46366;DHT22;32073;49.166;8.076;2023-04-21T03:13:29;9.40;57.90
46366;DHT22;32073;49.166;8.076;2023-04-21T03:17:30;9.40;57.90
46366;DHT22;32073;49.166;8.076;2023-04-21T03:21:31;9.40;57.90
46366;DHT22;32073;49.166;8.076;2023-04-21T03:25:31;9.30;57.90
46366;DHT22;32073;49.166;8.076;2023-04-21T03:29:32;9.30;58.00
46366;DHT22;32073;49.166;8.076;2023-04-21T03:33:33;9.30;58.10
46366;DHT22;32073;49.166;8.076;2023-04-21T03:37:33;9.20;58.00
46366;DHT22;32073;49.166;8.076;2023-04-21T03:41:34;9.20;58.00
46366;DHT22;32073;49.166;8.076;2023-04-21T03:45:35;9.20;58.20
46366;DHT22;32073;49.166;8.076;2023-04-21T03:49:35;9.20;58.30
46366;DHT22;32073;49.166;8.076;2023-04-21T03:53:37;9.10;58.40
46366;DHT22;32073;49.166;8.076;2023-04-21T03:57:39;9.10;58.50
46366;DHT22;32073;49.166;8.076;2023-04-21T04:01:40;9.10;58.60
46366;DHT22;32073;49.166;8.076;2023-04-21T04:05:41;9.10;58.50
46366;DHT22;32073;49.166;8.076;2023-04-21T04:09:42;9.10;58.60
46366;DHT22;32073;49.166;8.076;2023-04-21T04:13:43;9.10;58.60
46366;DHT22;32073;49.166;8.076;2023-04-21T04:17:44;9.10;58.70
46366;DHT22;32073;49.166;8.076;2023-04-21T04:21:45;9.10;58.80
46366;DHT22;32073;49.166;8.076;2023-04-21T04:25:45;9.00;58.80
46366;DHT22;32073;49.166;8.076;2023-04-21T04:29:47;9.00;58.90
46366;DHT22;32073;49.166;8.076;2023-04-21T04:33:52;9.00;59.00
46366;DHT22;32073;49.166;8.076;2023-04-21T04:37:53;9.00;59.00
46366;DHT22;32073;49.166;8.076;2023-04-21T04:41:54;9.00;59.10
46366;DHT22;32073;49.166;8.076;2023-04-21T04:45:54;9.00;59.20
46366;DHT22;32073;49.166;8.076;2023-04-21T04:49:55;9.00;59.20
46366;DHT22;32073;49.166;8.076;2023-04-21T04:53:56;9.10;59.40
46366;DHT22;32073;49.166;8.076;2023-04-21T04:57:56;9.10;59.50
46366;DHT22;32073;49.166;8.076;2023-04-21T05:01:57;9.10;59.60
46366;DHT22;32073;49.166;8.076;2023-04-21T05:05:57;9.10;59.60
46366;DHT22;32073;49.166;8.076;2023-04-21T05:09:58;9.20;59.60
46366;DHT22;32073;49.166;8.076;2023-04-21T05:13:59;9.20;59.60
46366;DHT22;32073;49.166;8.076;2023-04-21T05:17:59;9.30;59.70
46366;DHT22;32073;49.166;8.076;2023-04-21T05:22:00;9.30;59.70
46366;DHT22;32073;49.166;8.076;2023-04-21T05:26:01;9.30;59.80
46366;DHT22;32073;49.166;8.076;2023-04-21T05:30:01;9.30;59.80
46366;DHT22;32073;49.166;8.076;2023-04-21T05:34:02;9.40;59.80
46366;DHT22;32073;49.166;8.076;2023-04-21T05:38:03;9.40;59.80
46366;DHT22;32073;49.166;8.076;2023-04-21T05:42:04;9.40;59.90
46366;DHT22;32073;49.166;8.076;2023-04-21T05:46:08;9.40;59.90
46366;DHT22;32073;49.166;8.076;2023-04-21T05:50:10;9.40;60.10
46366;DHT22;32073;49.166;8.076;2023-04-21T05:54:10;9.40;60.00
46366;DHT22;32073;49.166;8.076;2023-04-21T05:58:11;9.50;60.00
46366;DHT22;32073;49.166;8.076;2023-04-21T06:02:12;9.50;59.90
46366;DHT22;32073;49.166;8.076;2023-04-21T06:06:12;9.50;60.00
46366;DHT22;32073;49.166;8.076;2023-04-21T06:10:14;9.50;60.00
46366;DHT22;32073;49.166;8.076;2023-04-21T06:14:16;9.50;59.90
46366;DHT22;32073;49.166;8.076;2023-04-21T06:18:17;9.50;59.60
46366;DHT22;32073;49.166;8.076;2023-04-21T06:22:23;9.40;59.50
46366;DHT22;32073;49.166;8.076;2023-04-21T06:26:24;9.40;60.10
46366;DHT22;32073;49.166;8.076;2023-04-21T06:30:25;9.40;60.20
46366;DHT22;32073;49.166;8.076;2023-04-21T06:34:25;9.50;60.30
46366;DHT22;32073;49.166;8.076;2023-04-21T06:38:26;9.60;60.50
46366;DHT22;32073;49.166;8.076;2023-04-21T06:42:26;9.70;60.60
46366;DHT22;32073;49.166;8.076;2023-04-21T06:46:27;9.80;60.50
46366;DHT22;32073;49.166;8.076;2023-04-21T06:50:28;9.90;60.60
46366;DHT22;32073;49.166;8.076;2023-04-21T06:54:28;10.00;60.80
46366;DHT22;32073;49.166;8.076;2023-04-21T06:58:29;10.10;60.90
46366;DHT22;32073;49.166;8.076;2023-04-21T07:02:30;10.20;61.10
46366;DHT22;32073;49.166;8.076;2023-04-21T07:06:31;10.30;60.90
46366;DHT22;32073;49.166;8.076;2023-04-21T07:10:31;10.40;60.90
46366;DHT22;32073;49.166;8.076;2023-04-21T07:14:32;10.50;60.90
46366;DHT22;32073;49.166;8.076;2023-04-21T07:18:33;10.50;60.80
46366;DHT22;32073;49.166;8.076;2023-04-21T07:22:33;10.60;61.10
46366;DHT22;32073;49.166;8.076;2023-04-21T07:26:35;10.70;61.40
46366;DHT22;32073;49.166;8.076;2023-04-21T07:30:36;10.70;61.30
46366;DHT22;32073;49.166;8.076;2023-04-21T07:34:37;10.90;61.50
46366;DHT22;32073;49.166;8.076;2023-04-21T07:38:37;11.00;61.70
46366;DHT22;32073;49.166;8.076;2023-04-21T07:42:42;11.20;61.60
46366;DHT22;32073;49.166;8.076;2023-04-21T07:46:43;11.30;61.30
46366;DHT22;32073;49.166;8.076;2023-04-21T07:50:43;11.30;61.00
46366;DHT22;32073;49.166;8.076;2023-04-21T07:54:44;11.40;60.90
46366;DHT22;32073;49.166;8.076;2023-04-21T07:58:45;11.40;60.90
46366;DHT22;32073;49.166;8.076;2023-04-21T08:02:45;11.40;60.80
46366;DHT22;32073;49.166;8.076;2023-04-21T08:06:46;11.40;60.70
46366;DHT22;32073;49.166;8.076;2023-04-21T08:10:46;11.40;60.90
46366;DHT22;32073;49.166;8.076;2023-04-21T08:14:47;11.40;61.10
46366;DHT22;32073;49.166;8.076;2023-04-21T08:18:48;11.50;61.30
46366;DHT22;32073;49.166;8.076;2023-04-21T08:22:48;11.60;61.30
46366;DHT22;32073;49.166;8.076;2023-04-21T08:26:49;11.70;61.30
46366;DHT22;32073;49.166;8.076;2023-04-21T08:30:50;11.70;61.30
46366;DHT22;32073;49.166;8.076;2023-04-21T08:34:52;11.80;61.20
46366;DHT22;32073;49.166;8.076;2023-04-21T08:38:53;11.90;61.40
46366;DHT22;32073;49.166;8.076;2023-04-21T08:42:54;11.90;61.30
46366;DHT22;32073;49.166;8.076;2023-04-21T08:46:55;12.00;61.50
46366;DHT22;32073;49.166;8.076;2023-04-21T08:50:58;12.10;61.50
46366;DHT22;32073;49.166;8.076;2023-04-21T08:54:59;12.20;61.50
46366;DHT22;32073;49.166;8.076;2023-04-21T08:59:00;12.30;61.30
46366;DHT22;32073;49.166;8.076;2023-04-21T09:03:01;12.40;61.50
46366;DHT22;32073;49.166;8.076;2023-04-21T09:07:04;12.40;61.40
46366;DHT22;32073;49.166;8.076;2023-04-21T09:11:05;12.60;61.30
46366;DHT22;32073;49.166;8.076;2023-04-21T09:15:09;12.70;61.50
46366;DHT22;32073;49.166;8.076;2023-04-21T09:19:14;12.80;61.40
46366;DHT22;32073;49.166;8.076;2023-04-21T09:23:15;12.90;61.30
46366;DHT22;32073;49.166;8.076;2023-04-21T09:27:16;13.00;61.10
46366;DHT22;32073;49.166;8.076;2023-04-21T09:31:19;13.20;61.10
46366;DHT22;32073;49.166;8.076;2023-04-21T09:35:23;13.10;60.80
46366;DHT22;32073;49.166;8.076;2023-04-21T09:39:31;13.30;61.00
46366;DHT22;32073;49.166;8.076;2023-04-21T09:43:32;13.40;61.00
46366;DHT22;32073;49.166;8.076;2023-04-21T09:47:38;13.50;60.90
46366;DHT22;32073;49.166;8.076;2023-04-21T09:51:42;13.60;61.00
46366;DHT22;32073;49.166;8.076;2023-04-21T09:55:46;13.70;60.90
46366;DHT22;32073;49.166;8.076;2023-04-21T09:59:59;13.80;60.70
46366;DHT22;32073;49.166;8.076;2023-04-21T10:04:01;13.90;60.60
46366;DHT22;32073;49.166;8.076;2023-04-21T10:08:02;14.10;60.70
46366;DHT22;32073;49.166;8.076;2023-04-21T10:12:07;14.20;60.50
46366;DHT22;32073;49.166;8.076;2023-04-21T10:16:09;14.20;60.40
46366;DHT22;32073;49.166;8.076;2023-04-21T10:20:14;14.40;60.30
46366;DHT22;32073;49.166;8.076;2023-04-21T10:24:15;14.50;60.80
46366;DHT22;32073;49.166;8.076;2023-04-21T10:28:18;14.60;60.10
46366;DHT22;32073;49.166;8.076;2023-04-21T10:32:41;14.70;60.00
46366;DHT22;32073;49.166;8.076;2023-04-21T10:36:48;14.80;60.00
46366;DHT22;32073;49.166;8.076;2023-04-21T10:40:51;15.00;60.10
46366;DHT22;32073;49.166;8.076;2023-04-21T10:49:19;15.10;59.80
46366;DHT22;32073;49.166;8.076;2023-04-21T10:53:24;15.20;59.70
46366;DHT22;32073;49.166;8.076;2023-04-21T10:57:25;15.40;59.80
46366;DHT22;32073;49.166;8.076;2023-04-21T11:01:25;15.40;59.80
46366;DHT22;32073;49.166;8.076;2023-04-21T11:05:37;15.50;59.70
46366;DHT22;32073;49.166;8.076;2023-04-21T11:09:40;15.60;59.70
46366;DHT22;32073;49.166;8.076;2023-04-21T11:13:42;15.70;59.70
46366;DHT22;32073;49.166;8.076;2023-04-21T11:17:44;15.80;59.50
46366;DHT22;32073;49.166;8.076;2023-04-21T11:21:47;15.90;59.60
46366;DHT22;32073;49.166;8.076;2023-04-21T11:25:48;16.10;59.60
46366;DHT22;32073;49.166;8.076;2023-04-21T11:29:49;16.30;59.30
46366;DHT22;32073;49.166;8.076;2023-04-21T11:33:50;16.40;59.00
46366;DHT22;32073;49.166;8.076;2023-04-21T11:37:50;16.50;58.70
46366;DHT22;32073;49.166;8.076;2023-04-21T11:41:51;16.60;58.60
46366;DHT22;32073;49.166;8.076;2023-04-21T11:45:52;16.70;58.40
46366;DHT22;32073;49.166;8.076;2023-04-21T11:49:57;16.90;58.60
46366;DHT22;32073;49.166;8.076;2023-04-21T11:54:00;17.00;58.30
46366;DHT22;32073;49.166;8.076;2023-04-21T11:58:01;17.10;58.20
46366;DHT22;32073;49.166;8.076;2023-04-21T12:02:02;17.20;57.90
46366;DHT22;32073;49.166;8.076;2023-04-21T12:06:03;17.30;57.80
46366;DHT22;32073;49.166;8.076;2023-04-21T12:10:16;17.40;57.70
46366;DHT22;32073;49.166;8.076;2023-04-21T12:14:22;17.50;57.30
46366;DHT22;32073;49.166;8.076;2023-04-21T12:18:26;17.60;57.30
46366;DHT22;32073;49.166;8.076;2023-04-21T12:22:27;17.70;57.10
46366;DHT22;32073;49.166;8.076;2023-04-21T12:26:28;17.80;56.70
46366;DHT22;32073;49.166;8.076;2023-04-21T12:30:29;17.90;56.90
46366;DHT22;32073;49.166;8.076;2023-04-21T12:34:30;18.10;56.30
46366;DHT22;32073;49.166;8.076;2023-04-21T12:38:32;18.20;56.20
46366;DHT22;32073;49.166;8.076;2023-04-21T12:42:32;18.30;55.90
46366;DHT22;32073;49.166;8.076;2023-04-21T12:46:33;18.40;55.70
46366;DHT22;32073;49.166;8.076;2023-04-21T12:50:34;18.50;55.40
46366;DHT22;32073;49.166;8.076;2023-04-21T12:54:35;18.60;55.50
46366;DHT22;32073;49.166;8.076;2023-04-21T12:58:35;18.70;55.30
46366;DHT22;32073;49.166;8.076;2023-04-21T13:02:36;18.80;55.10
46366;DHT22;32073;49.166;8.076;2023-04-21T13:06:37;18.90;55.10
46366;DHT22;32073;49.166;8.076;2023-04-21T13:10:38;19.00;55.10
46366;DHT22;32073;49.166;8.076;2023-04-21T13:14:39;19.00;54.70
46366;DHT22;32073;49.166;8.076;2023-04-21T13:18:40;19.10;54.40
46366;DHT22;32073;49.166;8.076;2023-04-21T13:22:41;19.20;54.30
46366;DHT22;32073;49.166;8.076;2023-04-21T13:26:41;19.20;54.10
46366;DHT22;32073;49.166;8.076;2023-04-21T13:30:42;19.30;53.60
46366;DHT22;32073;49.166;8.076;2023-04-21T13:34:42;19.40;53.50
46366;DHT22;32073;49.166;8.076;2023-04-21T13:38:43;19.40;53.60
46366;DHT22;32073;49.166;8.076;2023-04-21T13:42:44;19.50;53.90
46366;DHT22;32073;49.166;8.076;2023-04-21T13:46:45;19.60;53.80
46366;DHT22;32073;49.166;8.076;2023-04-21T13:50:46;19.80;53.50
46366;DHT22;32073;49.166;8.076;2023-04-21T13:54:46;19.90;53.20
46366;DHT22;32073;49.166;8.076;2023-04-21T13:58:47;20.00;53.00
46366;DHT22;32073;49.166;8.076;2023-04-21T14:02:48;20.10;53.00
46366;DHT22;32073;49.166;8.076;2023-04-21T14:06:49;20.10;52.10
46366;DHT22;32073;49.166;8.076;2023-04-21T14:10:50;20.10;52.10
46366;DHT22;32073;49.166;8.076;2023-04-21T14:14:51;20.10;52.00
46366;DHT22;32073;49.166;8.076;2023-04-21T14:18:52;20.20;52.10
46366;DHT22;32073;49.166;8.076;2023-04-21T14:22:52;20.10;52.10
46366;DHT22;32073;49.166;8.076;2023-04-21T14:26:53;20.20;51.90
46366;DHT22;32073;49.166;8.076;2023-04-21T14:30:55;20.20;51.60
46366;DHT22;32073;49.166;8.076;2023-04-21T14:34:56;20.20;51.40
46366;DHT22;32073;49.166;8.076;2023-04-21T14:38:58;20.30;51.20
46366;DHT22;32073;49.166;8.076;2023-04-21T14:42:59;20.30;51.30
46366;DHT22;32073;49.166;8.076;2023-04-21T14:47:00;20.30;51.30
46366;DHT22;32073;49.166;8.076;2023-04-21T14:51:00;20.30;51.10
46366;DHT22;32073;49.166;8.076;2023-04-21T14:55:01;20.30;51.20
46366;DHT22;32073;49.166;8.076;2023-04-21T14:59:03;20.30;50.80
46366;DHT22;32073;49.166;8.076;2023-04-21T15:03:03;20.30;50.70
46366;DHT22;32073;49.166;8.076;2023-04-21T15:07:04;20.30;50.90
46366;DHT22;32073;49.166;8.076;2023-04-21T15:11:05;20.20;51.00
46366;DHT22;32073;49.166;8.076;2023-04-21T15:15:06;20.20;51.00
46366;DHT22;32073;49.166;8.076;2023-04-21T15:19:07;20.20;51.00
46366;DHT22;32073;49.166;8.076;2023-04-21T15:23:07;20.20;50.90
46366;DHT22;32073;49.166;8.076;2023-04-21T15:27:08;20.30;50.90
46366;DHT22;32073;49.166;8.076;2023-04-21T15:31:09;20.40;50.90
46366;DHT22;32073;49.166;8.076;2023-04-21T15:35:10;20.40;51.10
46366;DHT22;32073;49.166;8.076;2023-04-21T15:39:10;20.60;50.90
46366;DHT22;32073;49.166;8.076;2023-04-21T15:43:13;20.70;50.90
46366;DHT22;32073;49.166;8.076;2023-04-21T15:47:13;20.70;50.20
46366;DHT22;32073;49.166;8.076;2023-04-21T15:51:17;20.60;50.40
46366;DHT22;32073;49.166;8.076;2023-04-21T15:55:18;20.40;50.10
46366;DHT22;32073;49.166;8.076;2023-04-21T15:59:18;20.10;50.40
46366;DHT22;32073;49.166;8.076;2023-04-21T16:03:19;19.80;50.90
46366;DHT22;32073;49.166;8.076;2023-04-21T16:07:20;19.60;51.50
46366;DHT22;32073;49.166;8.076;2023-04-21T16:11:21;19.50;51.60
46366;DHT22;32073;49.166;8.076;2023-04-21T16:15:22;19.50;51.70
46366;DHT22;32073;49.166;8.076;2023-04-21T16:19:23;19.40;51.90
46366;DHT22;32073;49.166;8.076;2023-04-21T16:23:25;19.40;52.40
46366;DHT22;32073;49.166;8.076;2023-04-21T16:27:26;19.50;52.40
46366;DHT22;32073;49.166;8.076;2023-04-21T16:31:27;19.40;52.40
46366;DHT22;32073;49.166;8.076;2023-04-21T16:35:28;19.50;52.70
46366;DHT22;32073;49.166;8.076;2023-04-21T16:39:28;19.60;52.50
46366;DHT22;32073;49.166;8.076;2023-04-21T16:43:29;19.60;52.40
46366;DHT22;32073;49.166;8.076;2023-04-21T16:47:30;19.60;52.10
46366;DHT22;32073;49.166;8.076;2023-04-21T16:51:36;19.60;52.50
46366;DHT22;32073;49.166;8.076;2023-04-21T16:55:39;19.60;52.00
46366;DHT22;32073;49.166;8.076;2023-04-21T16:59:39;19.60;52.10
46366;DHT22;32073;49.166;8.076;2023-04-21T17:03:40;19.50;51.80
46366;DHT22;32073;49.166;8.076;2023-04-21T17:07:41;19.40;52.10
46366;DHT22;32073;49.166;8.076;2023-04-21T17:11:42;19.40;52.10
46366;DHT22;32073;49.166;8.076;2023-04-21T17:15:45;19.30;51.90
46366;DHT22;32073;49.166;8.076;2023-04-21T17:19:45;19.20;51.80
46366;DHT22;32073;49.166;8.076;2023-04-21T17:23:46;19.10;52.00
46366;DHT22;32073;49.166;8.076;2023-04-21T17:27:47;19.00;52.30
46366;DHT22;32073;49.166;8.076;2023-04-21T17:31:47;19.00;52.40
46366;DHT22;32073;49.166;8.076;2023-04-21T17:35:48;18.90;52.30
46366;DHT22;32073;49.166;8.076;2023-04-21T17:39:48;18.80;52.20
46366;DHT22;32073;49.166;8.076;2023-04-21T17:43:49;18.70;52.20
46366;DHT22;32073;49.166;8.076;2023-04-21T17:47:50;18.70;52.30
46366;DHT22;32073;49.166;8.076;2023-04-21T17:51:51;18.60;52.50
46366;DHT22;32073;49.166;8.076;2023-04-21T17:55:52;18.50;52.60
46366;DHT22;32073;49.166;8.076;2023-04-21T17:59:52;18.40;52.80
46366;DHT22;32073;49.166;8.076;2023-04-21T18:03:53;18.40;53.10
46366;DHT22;32073;49.166;8.076;2023-04-21T18:07:54;18.30;53.20
46366;DHT22;32073;49.166;8.076;2023-04-21T18:11:55;18.20;53.40
46366;DHT22;32073;49.166;8.076;2023-04-21T18:15:56;18.30;53.50
46366;DHT22;32073;49.166;8.076;2023-04-21T18:19:57;18.10;53.40
46366;DHT22;32073;49.166;8.076;2023-04-21T18:23:57;18.00;53.60
46366;DHT22;32073;49.166;8.076;2023-04-21T18:27:58;17.90;53.90
46366;DHT22;32073;49.166;8.076;2023-04-21T18:31:59;17.90;53.90
46366;DHT22;32073;49.166;8.076;2023-04-21T18:35:59;17.80;54.00
46366;DHT22;32073;49.166;8.076;2023-04-21T18:40:00;17.70;54.00
46366;DHT22;32073;49.166;8.076;2023-04-21T18:44:01;17.60;54.20
46366;DHT22;32073;49.166;8.076;2023-04-21T18:48:02;17.50;54.30
46366;DHT22;32073;49.166;8.076;2023-04-21T18:52:02;17.40;54.30
46366;DHT22;32073;49.166;8.076;2023-04-21T18:56:03;17.40;54.50
46366;DHT22;32073;49.166;8.076;2023-04-21T19:00:04;17.30;54.70
46366;DHT22;32073;49.166;8.076;2023-04-21T19:04:06;17.20;54.60
46366;DHT22;32073;49.166;8.076;2023-04-21T19:08:09;17.10;54.60
46366;DHT22;32073;49.166;8.076;2023-04-21T19:12:10;17.00;54.60
46366;DHT22;32073;49.166;8.076;2023-04-21T19:16:11;17.00;54.80
46366;DHT22;32073;49.166;8.076;2023-04-21T19:20:11;17.00;54.80
46366;DHT22;32073;49.166;8.076;2023-04-21T19:24:12;16.90;54.80
46366;DHT22;32073;49.166;8.076;2023-04-21T19:28:13;16.90;55.00
46366;DHT22;32073;49.166;8.076;2023-04-21T19:32:13;16.80;55.00
46366;DHT22;32073;49.166;8.076;2023-04-21T19:36:14;16.80;55.20
46366;DHT22;32073;49.166;8.076;2023-04-21T19:40:15;16.90;55.40
46366;DHT22;32073;49.166;8.076;2023-04-21T19:44:16;16.80;55.50
46366;DHT22;32073;49.166;8.076;2023-04-21T19:48:16;16.80;55.30
46366;DHT22;32073;49.166;8.076;2023-04-21T19:52:17;16.80;55.20
46366;DHT22;32073;49.166;8.076;2023-04-21T19:56:18;16.80;56.20
46366;DHT22;32073;49.166;8.076;2023-04-21T20:00:18;16.80;55.70
46366;DHT22;32073;49.166;8.076;2023-04-21T20:04:19;16.90;55.90
46366;DHT22;32073;49.166;8.076;2023-04-21T20:08:20;16.90;56.00
46366;DHT22;32073;49.166;8.076;2023-04-21T20:12:21;16.90;56.10
46366;DHT22;32073;49.166;8.076;2023-04-21T20:16:22;16.90;56.10
46366;DHT22;32073;49.166;8.076;2023-04-21T20:20:25;16.90;56.20
46366;DHT22;32073;49.166;8.076;2023-04-21T20:24:26;16.90;56.30
46366;DHT22;32073;49.166;8.076;2023-04-21T20:28:27;16.90;56.30
46366;DHT22;32073;49.166;8.076;2023-04-21T20:32:27;16.90;56.30
46366;DHT22;32073;49.166;8.076;2023-04-21T20:36:28;16.90;56.30
46366;DHT22;32073;49.166;8.076;2023-04-21T20:40:28;16.90;56.30
46366;DHT22;32073;49.166;8.076;2023-04-21T20:44:30;16.90;56.40
46366;DHT22;32073;49.166;8.076;2023-04-21T20:48:32;16.90;56.40
46366;DHT22;32073;49.166;8.076;2023-04-21T20:52:33;16.90;56.50
46366;DHT22;32073;49.166;8.076;2023-04-21T20:56:34;16.90;56.50
46366;DHT22;32073;49.166;8.076;2023-04-21T21:00:34;17.00;56.60
46366;DHT22;32073;49.166;8.076;2023-04-21T21:04:35;16.90;56.60
46366;DHT22;32073;49.166;8.076;2023-04-21T21:08:36;16.90;56.60
46366;DHT22;32073;49.166;8.076;2023-04-21T21:12:37;16.90;56.60
46366;DHT22;32073;49.166;8.076;2023-04-21T21:16:38;16.90;56.60
46366;DHT22;32073;49.166;8.076;2023-04-21T21:20:39;16.90;56.60
46366;DHT22;32073;49.166;8.076;2023-04-21T21:24:40;16.80;56.60
46366;DHT22;32073;49.166;8.076;2023-04-21T21:28:40;16.80;56.70
46366;DHT22;32073;49.166;8.076;2023-04-21T21:32:41;16.80;56.80
46366;DHT22;32073;49.166;8.076;2023-04-21T21:36:41;16.70;56.80
46366;DHT22;32073;49.166;8.076;2023-04-21T21:40:42;16.70;56.90
46366;DHT22;32073;49.166;8.076;2023-04-21T21:44:43;16.70;56.90
46366;DHT22;32073;49.166;8.076;2023-04-21T21:48:43;16.70;56.90
46366;DHT22;32073;49.166;8.076;2023-04-21T21:52:44;16.60;57.00
46366;DHT22;32073;49.166;8.076;2023-04-21T21:56:46;16.60;57.00
46366;DHT22;32073;49.166;8.076;2023-04-21T22:00:47;16.50;57.00
46366;DHT22;32073;49.166;8.076;2023-04-21T22:04:51;16.60;57.20
46366;DHT22;32073;49.166;8.076;2023-04-21T22:08:53;16.50;57.20
46366;DHT22;32073;49.166;8.076;2023-04-21T22:12:54;16.50;57.30
46366;DHT22;32073;49.166;8.076;2023-04-21T22:16:54;16.50;57.30
46366;DHT22;32073;49.166;8.076;2023-04-21T22:20:56;16.50;57.40
46366;DHT22;32073;49.166;8.076;2023-04-21T22:24:58;16.50;57.60
46366;DHT22;32073;49.166;8.076;2023-04-21T22:28:58;16.40;57.50
46366;DHT22;32073;49.166;8.076;2023-04-21T22:32:59;16.50;57.60
46366;DHT22;32073;49.166;8.076;2023-04-21T22:37:00;16.40;57.50
46366;DHT22;32073;49.166;8.076;2023-04-21T22:41:01;16.40;57.50
46366;DHT22;32073;49.166;8.076;2023-04-21T22:45:02;16.40;57.50
46366;DHT22;32073;49.166;8.076;2023-04-21T22:49:06;16.40;57.60
46366;DHT22;32073;49.166;8.076;2023-04-21T22:53:08;16.40;57.60
46366;DHT22;32073;49.166;8.076;2023-04-21T22:57:09;16.40;57.60
46366;DHT22;32073;49.166;8.076;2023-04-21T23:01:09;16.40;57.60
46366;DHT22;32073;49.166;8.076;2023-04-21T23:05:10;16.40;57.60
46366;DHT22;32073;49.166;8.076;2023-04-21T23:09:11;16.30;57.60
46366;DHT22;32073;49.166;8.076;2023-04-21T23:13:11;16.30;57.60
46366;DHT22;32073;49.166;8.076;2023-04-21T23:17:12;16.30;57.70
46366;DHT22;32073;49.166;8.076;2023-04-21T23:21:13;16.30;57.70
46366;DHT22;32073;49.166;8.076;2023-04-21T23:25:14;16.30;57.80
46366;DHT22;32073;49.166;8.076;2023-04-21T23:29:14;16.20;57.70
46366;DHT22;32073;49.166;8.076;2023-04-21T23:33:15;16.20;58.30
46366;DHT22;32073;49.166;8.076;2023-04-21T23:37:16;16.10;57.80
46366;DHT22;32073;49.166;8.076;2023-04-21T23:41:16;16.10;57.80
46366;DHT22;32073;49.166;8.076;2023-04-21T23:45:17;16.10;57.90
46366;DHT22;32073;49.166;8.076;2023-04-21T23:49:18;16.10;57.90
46366;DHT22;32073;49.166;8.076;2023-04-21T23:53:18;16.10;57.90
46366;DHT22;32073;49.166;8.076;2023-04-21T23:57:19;16.10;58.00
